createdAt,value
2023-02-22T00:00:00.285Z,1011.45
2023-02-22T00:01:00.293Z,1011.46
2023-02-22T00:02:00.284Z,1011.46
2023-02-22T00:03:00.361Z,1011.47
2023-02-22T00:04:00.244Z,1011.48
2023-02-22T00:05:00.235Z,1011.47
2023-02-22T00:06:00.229Z,1011.47
2023-02-22T00:07:00.217Z,1011.49
2023-02-22T00:08:00.228Z,1011.50
2023-02-22T00:09:00.177Z,1011.48
2023-02-22T00:10:00.193Z,1011.51
2023-02-22T00:11:00.169Z,1011.46
2023-02-22T00:12:00.160Z,1011.44
2023-02-22T00:13:00.177Z,1011.43
2023-02-22T00:14:00.154Z,1011.43
2023-02-22T00:15:00.144Z,1011.39
2023-02-22T00:16:00.243Z,1011.41
2023-02-22T00:17:00.144Z,1011.41
2023-02-22T00:18:00.112Z,1011.40
2023-02-22T00:19:00.115Z,1011.35
2023-02-22T00:20:00.138Z,1011.37
2023-02-22T00:21:00.155Z,1011.37
2023-02-22T00:22:00.289Z,1011.36
2023-02-22T00:23:00.068Z,1011.36
2023-02-22T00:24:00.032Z,1011.35
2023-02-22T00:25:00.017Z,1011.34
2023-02-22T00:26:00.045Z,1011.35
2023-02-22T00:27:00.024Z,1011.38
2023-02-22T00:27:59.981Z,1011.35
2023-02-22T00:28:59.993Z,1011.38
2023-02-22T00:29:59.986Z,1011.38
2023-02-22T00:31:00.112Z,1011.35
2023-02-22T00:32:00.069Z,1011.38
2023-02-22T00:32:59.928Z,1011.34
2023-02-22T00:33:59.941Z,1011.33
2023-02-22T00:34:59.960Z,1011.35
2023-02-22T00:35:59.893Z,1011.40
2023-02-22T00:36:59.888Z,1011.35
2023-02-22T00:37:59.878Z,1011.37
2023-02-22T00:38:59.881Z,1011.37
2023-02-22T00:39:59.877Z,1011.36
2023-02-22T00:40:59.841Z,1011.36
2023-02-22T00:41:59.853Z,1011.33
2023-02-22T00:42:59.854Z,1011.32
2023-02-22T00:43:59.805Z,1011.34
2023-02-22T00:44:59.822Z,1011.35
2023-02-22T00:45:59.903Z,1011.32
2023-02-22T00:46:59.785Z,1011.30
2023-02-22T00:47:59.771Z,1011.33
2023-02-22T00:48:59.842Z,1011.34
2023-02-22T00:49:59.743Z,1011.32
2023-02-22T00:50:59.766Z,1011.31
2023-02-22T00:51:59.724Z,1011.32
2023-02-22T00:52:59.712Z,1011.35
2023-02-22T00:53:59.705Z,1011.32
2023-02-22T00:54:59.695Z,1011.30
2023-02-22T00:55:59.703Z,1011.32
2023-02-22T00:56:59.671Z,1011.32
2023-02-22T00:57:59.662Z,1011.33
2023-02-22T00:58:59.646Z,1011.32
2023-02-22T00:59:59.627Z,1011.32
2023-02-22T01:00:59.650Z,1011.36
2023-02-22T01:01:59.692Z,1011.34
2023-02-22T01:02:59.633Z,1011.31
2023-02-22T01:03:59.594Z,1011.36
2023-02-22T01:04:59.573Z,1011.38
2023-02-22T01:05:59.584Z,1011.37
2023-02-22T01:06:59.562Z,1011.34
2023-02-22T01:07:59.552Z,1011.39
2023-02-22T01:08:59.569Z,1011.42
2023-02-22T01:09:59.553Z,1011.41
2023-02-22T01:10:59.509Z,1011.39
2023-02-22T01:11:59.506Z,1011.38
2023-02-22T01:12:59.492Z,1011.42
2023-02-22T01:13:59.472Z,1011.42
2023-02-22T01:14:59.469Z,1011.44
2023-02-22T01:15:59.495Z,1011.40
2023-02-22T01:16:59.451Z,1011.42
2023-02-22T01:17:59.466Z,1011.43
2023-02-22T01:18:59.424Z,1011.41
2023-02-22T01:19:59.427Z,1011.37
2023-02-22T01:20:59.404Z,1011.41
2023-02-22T01:21:59.427Z,1011.37
2023-02-22T01:22:59.451Z,1011.36
2023-02-22T01:23:59.364Z,1011.34
2023-02-22T01:24:59.353Z,1011.33
2023-02-22T01:25:59.347Z,1011.32
2023-02-22T01:26:59.346Z,1011.32
2023-02-22T01:27:59.361Z,1011.26
2023-02-22T01:28:59.309Z,1011.26
2023-02-22T01:29:59.308Z,1011.23
2023-02-22T01:30:59.398Z,1011.27
2023-02-22T01:31:59.391Z,1011.28
2023-02-22T01:32:59.307Z,1011.22
2023-02-22T01:33:59.344Z,1011.26
2023-02-22T01:34:59.249Z,1011.26
2023-02-22T01:35:59.236Z,1011.22
2023-02-22T01:36:59.229Z,1011.25
2023-02-22T01:37:59.245Z,1011.22
2023-02-22T01:38:59.209Z,1011.20
2023-02-22T01:39:59.195Z,1011.22
2023-02-22T01:40:59.178Z,1011.24
2023-02-22T01:41:59.174Z,1011.21
2023-02-22T01:42:59.192Z,1011.26
2023-02-22T01:43:59.155Z,1011.23
2023-02-22T01:44:59.141Z,1011.21
2023-02-22T01:45:59.212Z,1011.20
2023-02-22T01:46:59.121Z,1011.18
2023-02-22T01:47:59.127Z,1011.21
2023-02-22T01:48:59.109Z,1011.20
2023-02-22T01:49:59.097Z,1011.18
2023-02-22T01:50:59.067Z,1011.21
2023-02-22T01:51:59.065Z,1011.16
2023-02-22T01:52:59.044Z,1011.20
2023-02-22T01:53:59.081Z,1011.17
2023-02-22T01:54:59.024Z,1011.19
2023-02-22T01:55:59.012Z,1011.15
2023-02-22T01:56:59.001Z,1011.14
2023-02-22T01:57:59.010Z,1011.11
2023-02-22T01:58:59.016Z,1011.11
2023-02-22T01:59:59.004Z,1011.11
2023-02-22T02:00:58.966Z,1011.13
2023-02-22T02:01:58.948Z,1011.12
2023-02-22T02:02:58.995Z,1011.12
2023-02-22T02:03:59.060Z,1011.14
2023-02-22T02:04:58.946Z,1011.14
2023-02-22T02:05:58.937Z,1011.15
2023-02-22T02:07:19.902Z,1011.13
2023-02-22T02:07:58.880Z,1011.16
2023-02-22T02:08:58.912Z,1011.12
2023-02-22T02:09:58.881Z,1011.15
2023-02-22T02:10:58.857Z,1011.16
2023-02-22T02:11:58.881Z,1011.15
2023-02-22T02:12:58.850Z,1011.18
2023-02-22T02:13:58.839Z,1011.15
2023-02-22T02:14:58.806Z,1011.19
2023-02-22T02:15:58.808Z,1011.16
2023-02-22T02:16:58.869Z,1011.11
2023-02-22T02:17:58.773Z,1011.13
2023-02-22T02:18:58.757Z,1011.06
2023-02-22T02:19:58.773Z,1011.11
2023-02-22T02:20:58.746Z,1011.07
2023-02-22T02:21:58.783Z,1011.10
2023-02-22T02:22:58.720Z,1011.05
2023-02-22T02:23:58.708Z,1011.05
2023-02-22T02:24:58.726Z,1011.06
2023-02-22T02:25:58.698Z,1011.10
2023-02-22T02:26:58.711Z,1011.08
2023-02-22T02:27:58.667Z,1011.07
2023-02-22T02:28:58.654Z,1011.07
2023-02-22T02:29:58.645Z,1011.02
2023-02-22T02:30:58.664Z,1011.06
2023-02-22T02:31:58.713Z,1011.03
2023-02-22T02:32:58.625Z,1011.05
2023-02-22T02:33:58.606Z,1011.00
2023-02-22T02:34:58.603Z,1011.01
2023-02-22T02:35:58.585Z,1011.02
2023-02-22T02:36:58.585Z,1010.99
2023-02-22T02:37:58.608Z,1010.99
2023-02-22T02:38:58.560Z,1010.97
2023-02-22T02:39:58.617Z,1010.99
2023-02-22T02:40:58.538Z,1010.97
2023-02-22T02:41:58.516Z,1010.99
2023-02-22T02:42:58.513Z,1010.98
2023-02-22T02:43:58.514Z,1010.96
2023-02-22T02:44:58.499Z,1011.01
2023-02-22T02:45:58.488Z,1011.01
2023-02-22T02:46:58.500Z,1011.01
2023-02-22T02:47:58.462Z,1011.02
2023-02-22T02:48:58.446Z,1011.03
2023-02-22T02:49:58.439Z,1011.01
2023-02-22T02:50:58.417Z,1011.02
2023-02-22T02:51:58.404Z,1011.01
2023-02-22T02:52:58.404Z,1011.03
2023-02-22T02:53:58.425Z,1011.00
2023-02-22T02:54:58.455Z,1011.01
2023-02-22T02:55:58.373Z,1010.96
2023-02-22T02:56:58.366Z,1010.98
2023-02-22T02:57:58.938Z,1011.01
2023-02-22T02:58:58.367Z,1010.95
2023-02-22T02:59:58.360Z,1010.99
2023-02-22T03:00:58.403Z,1010.98
2023-02-22T03:01:58.370Z,1011.04
2023-02-22T03:02:58.293Z,1011.02
2023-02-22T03:03:58.291Z,1010.99
2023-02-22T03:04:58.271Z,1011.02
2023-02-22T03:05:58.262Z,1010.96
2023-02-22T03:06:58.260Z,1010.95
2023-02-22T03:07:58.240Z,1010.93
2023-02-22T03:08:58.230Z,1010.95
2023-02-22T03:09:58.242Z,1010.92
2023-02-22T03:10:58.205Z,1010.93
2023-02-22T03:11:58.226Z,1010.94
2023-02-22T03:12:58.185Z,1010.92
2023-02-22T03:13:58.172Z,1010.92
2023-02-22T03:14:58.165Z,1010.89
2023-02-22T03:15:58.154Z,1010.93
2023-02-22T03:16:58.133Z,1010.88
2023-02-22T03:17:58.135Z,1010.91
2023-02-22T03:18:58.128Z,1010.90
2023-02-22T03:19:58.114Z,1010.90
2023-02-22T03:20:58.102Z,1010.93
2023-02-22T03:21:58.077Z,1010.91
2023-02-22T03:22:58.079Z,1010.88
2023-02-22T03:23:58.070Z,1010.86
2023-02-22T03:24:58.058Z,1010.89
2023-02-22T03:25:58.065Z,1010.86
2023-02-22T03:26:58.042Z,1010.88
2023-02-22T03:27:58.033Z,1010.86
2023-02-22T03:28:58.023Z,1010.91
2023-02-22T03:29:58.005Z,1010.87
2023-02-22T03:30:58.025Z,1010.87
2023-02-22T03:31:57.984Z,1010.84
2023-02-22T03:32:57.970Z,1010.82
2023-02-22T03:33:57.952Z,1010.86
2023-02-22T03:34:57.952Z,1010.87
2023-02-22T03:35:57.932Z,1010.87
2023-02-22T03:36:57.938Z,1010.86
2023-02-22T03:37:57.905Z,1010.82
2023-02-22T03:38:57.909Z,1010.87
2023-02-22T03:39:57.891Z,1010.88
2023-02-22T03:40:57.892Z,1010.86
2023-02-22T03:41:57.915Z,1010.87
2023-02-22T03:42:57.856Z,1010.89
2023-02-22T03:43:57.841Z,1010.91
2023-02-22T03:44:57.837Z,1010.96
2023-02-22T03:45:57.824Z,1010.98
2023-02-22T03:46:57.849Z,1010.95
2023-02-22T03:47:57.804Z,1010.96
2023-02-22T03:48:57.791Z,1010.97
2023-02-22T03:49:57.783Z,1010.95
2023-02-22T03:50:57.767Z,1010.92
2023-02-22T03:51:57.759Z,1010.94
2023-02-22T03:52:57.761Z,1010.93
2023-02-22T03:53:57.740Z,1010.97
2023-02-22T03:54:57.732Z,1010.99
2023-02-22T03:55:57.728Z,1010.97
2023-02-22T03:56:57.715Z,1010.94
2023-02-22T03:57:57.738Z,1011.00
2023-02-22T03:58:57.685Z,1010.96
2023-02-22T03:59:57.676Z,1010.96
2023-02-22T04:00:57.675Z,1010.93
2023-02-22T04:01:57.664Z,1010.94
2023-02-22T04:02:57.677Z,1010.95
2023-02-22T04:03:57.633Z,1010.99
2023-02-22T04:04:57.637Z,1010.88
2023-02-22T04:05:57.609Z,1010.97
2023-02-22T04:06:57.590Z,1010.94
2023-02-22T04:07:57.609Z,1010.91
2023-02-22T04:08:57.581Z,1010.89
2023-02-22T04:09:57.563Z,1010.88
2023-02-22T04:10:57.542Z,1010.86
2023-02-22T04:11:57.542Z,1010.88
2023-02-22T04:12:57.550Z,1010.90
2023-02-22T04:13:57.577Z,1010.88
2023-02-22T04:14:57.508Z,1010.92
2023-02-22T04:15:57.533Z,1010.93
2023-02-22T04:16:57.488Z,1010.94
2023-02-22T04:17:57.484Z,1010.93
2023-02-22T04:18:57.471Z,1010.93
2023-02-22T04:19:57.450Z,1010.91
2023-02-22T04:20:57.437Z,1010.93
2023-02-22T04:21:57.428Z,1010.92
2023-02-22T04:22:57.443Z,1010.88
2023-02-22T04:23:57.403Z,1010.86
2023-02-22T04:24:57.396Z,1010.89
2023-02-22T04:25:57.386Z,1010.85
2023-02-22T04:26:57.375Z,1010.89
2023-02-22T04:27:57.371Z,1010.89
2023-02-22T04:28:57.365Z,1010.87
2023-02-22T04:29:57.375Z,1010.87
2023-02-22T04:30:57.346Z,1010.87
2023-02-22T04:31:57.332Z,1010.88
2023-02-22T04:32:57.300Z,1010.92
2023-02-22T04:33:57.315Z,1010.88
2023-02-22T04:34:57.292Z,1010.89
2023-02-22T04:35:57.272Z,1010.91
2023-02-22T04:36:57.271Z,1010.93
2023-02-22T04:37:57.257Z,1010.93
2023-02-22T04:38:57.241Z,1010.93
2023-02-22T04:39:57.252Z,1010.94
2023-02-22T04:40:57.240Z,1010.97
2023-02-22T04:41:57.205Z,1010.92
2023-02-22T04:42:57.200Z,1010.98
2023-02-22T04:43:57.187Z,1010.93
2023-02-22T04:44:57.177Z,1010.94
2023-02-22T04:45:57.199Z,1010.93
2023-02-22T04:46:57.151Z,1010.92
2023-02-22T04:47:57.151Z,1010.89
2023-02-22T04:48:57.139Z,1010.92
2023-02-22T04:49:57.135Z,1010.91
2023-02-22T04:50:57.134Z,1010.93
2023-02-22T04:51:57.100Z,1010.92
2023-02-22T04:52:57.097Z,1010.90
2023-02-22T04:53:57.075Z,1010.87
2023-02-22T04:54:57.064Z,1010.89
2023-02-22T04:55:57.077Z,1010.86
2023-02-22T04:56:57.060Z,1010.91
2023-02-22T04:57:57.044Z,1010.88
2023-02-22T04:58:57.020Z,1010.87
2023-02-22T04:59:57.019Z,1010.90
2023-02-22T05:00:57.006Z,1010.84
2023-02-22T05:01:57.036Z,1010.85
2023-02-22T05:02:57.002Z,1010.85
2023-02-22T05:03:56.979Z,1010.81
2023-02-22T05:04:57.028Z,1010.81
2023-02-22T05:05:56.945Z,1010.79
2023-02-22T05:06:56.943Z,1010.81
2023-02-22T05:07:56.946Z,1010.77
2023-02-22T05:08:56.931Z,1010.78
2023-02-22T05:09:56.912Z,1010.79
2023-02-22T05:10:56.892Z,1010.80
2023-02-22T05:11:56.894Z,1010.81
2023-02-22T05:12:56.877Z,1010.78
2023-02-22T05:13:56.872Z,1010.83
2023-02-22T05:14:56.858Z,1010.83
2023-02-22T05:15:56.863Z,1010.82
2023-02-22T05:16:56.842Z,1010.83
2023-02-22T05:17:56.830Z,1010.81
2023-02-22T05:18:56.808Z,1010.86
2023-02-22T05:19:56.800Z,1010.82
2023-02-22T05:20:56.799Z,1010.81
2023-02-22T05:21:56.784Z,1010.79
2023-02-22T05:22:56.772Z,1010.78
2023-02-22T05:23:56.755Z,1010.76
2023-02-22T05:24:56.737Z,1010.73
2023-02-22T05:25:56.801Z,1010.71
2023-02-22T05:26:56.720Z,1010.73
2023-02-22T05:27:56.743Z,1010.73
2023-02-22T05:28:56.700Z,1010.73
2023-02-22T05:29:56.684Z,1010.73
2023-02-22T05:30:56.718Z,1010.73
2023-02-22T05:31:56.779Z,1010.71
2023-02-22T05:32:56.669Z,1010.75
2023-02-22T05:33:56.691Z,1010.72
2023-02-22T05:34:56.628Z,1010.72
2023-02-22T05:35:56.630Z,1010.70
2023-02-22T05:36:56.618Z,1010.73
2023-02-22T05:37:56.625Z,1010.74
2023-02-22T05:38:56.606Z,1010.70
2023-02-22T05:39:56.599Z,1010.74
2023-02-22T05:40:56.579Z,1010.70
2023-02-22T05:41:56.559Z,1010.77
2023-02-22T05:42:56.554Z,1010.75
2023-02-22T05:43:56.547Z,1010.75
2023-02-22T05:44:56.677Z,1010.77
2023-02-22T05:45:56.521Z,1010.79
2023-02-22T05:46:56.497Z,1010.84
2023-02-22T05:47:56.511Z,1010.85
2023-02-22T05:48:56.479Z,1010.86
2023-02-22T05:49:56.528Z,1010.86
2023-02-22T05:50:56.479Z,1010.88
2023-02-22T05:51:56.449Z,1010.92
2023-02-22T05:52:56.454Z,1010.88
2023-02-22T05:53:56.433Z,1010.87
2023-02-22T05:54:56.427Z,1010.90
2023-02-22T05:55:56.420Z,1010.87
2023-02-22T05:56:56.394Z,1010.86
2023-02-22T05:57:56.378Z,1010.92
2023-02-22T05:58:56.392Z,1010.90
2023-02-22T05:59:56.367Z,1010.88
2023-02-22T06:00:56.398Z,1010.94
2023-02-22T06:01:56.408Z,1010.89
2023-02-22T06:02:56.324Z,1010.91
2023-02-22T06:03:56.323Z,1010.94
2023-02-22T06:04:56.310Z,1010.93
2023-02-22T06:05:56.342Z,1010.96
2023-02-22T06:06:56.294Z,1010.94
2023-02-22T06:07:56.272Z,1010.95
2023-02-22T06:08:56.274Z,1010.98
2023-02-22T06:09:56.275Z,1010.94
2023-02-22T06:10:56.237Z,1010.99
2023-02-22T06:11:56.248Z,1010.96
2023-02-22T06:12:56.218Z,1010.94
2023-02-22T06:13:56.220Z,1010.98
2023-02-22T06:14:56.221Z,1010.97
2023-02-22T06:15:56.191Z,1010.97
2023-02-22T06:16:56.185Z,1010.97
2023-02-22T06:17:56.163Z,1011.00
2023-02-22T06:18:56.147Z,1011.03
2023-02-22T06:19:56.173Z,1010.99
2023-02-22T06:20:56.140Z,1010.99
2023-02-22T06:21:56.131Z,1011.02
2023-02-22T06:22:56.124Z,1011.03
2023-02-22T06:23:56.107Z,1011.06
2023-02-22T06:24:56.099Z,1011.05
2023-02-22T06:25:56.070Z,1011.04
2023-02-22T06:26:56.064Z,1011.11
2023-02-22T06:27:56.073Z,1011.05
2023-02-22T06:28:56.056Z,1011.04
2023-02-22T06:29:56.038Z,1011.05
2023-02-22T06:30:56.024Z,1011.06
2023-02-22T06:31:56.130Z,1011.07
2023-02-22T06:32:56.002Z,1011.06
2023-02-22T06:33:56.210Z,1011.07
2023-02-22T06:34:55.978Z,1011.06
2023-02-22T06:35:55.976Z,1011.06
2023-02-22T06:36:55.990Z,1011.09
2023-02-22T06:37:55.968Z,1011.12
2023-02-22T06:38:55.943Z,1011.13
2023-02-22T06:39:56.040Z,1011.13
2023-02-22T06:40:55.917Z,1011.12
2023-02-22T06:41:55.952Z,1011.15
2023-02-22T06:42:55.888Z,1011.15
2023-02-22T06:43:55.894Z,1011.17
2023-02-22T06:44:55.867Z,1011.14
2023-02-22T06:45:55.891Z,1011.17
2023-02-22T06:46:55.875Z,1011.18
2023-02-22T06:47:55.839Z,1011.19
2023-02-22T06:48:55.832Z,1011.25
2023-02-22T06:49:55.848Z,1011.24
2023-02-22T06:50:55.802Z,1011.27
2023-02-22T06:51:55.793Z,1011.23
2023-02-22T06:52:55.807Z,1011.21
2023-02-22T06:53:55.794Z,1011.21
2023-02-22T06:54:55.773Z,1011.23
2023-02-22T06:55:55.748Z,1011.24
2023-02-22T06:56:55.763Z,1011.25
2023-02-22T06:57:55.741Z,1011.24
2023-02-22T06:58:55.730Z,1011.28
2023-02-22T06:59:55.713Z,1011.26
2023-02-22T07:00:55.766Z,1011.27
2023-02-22T07:01:55.692Z,1011.31
2023-02-22T07:02:55.686Z,1011.26
2023-02-22T07:03:55.696Z,1011.30
2023-02-22T07:04:55.660Z,1011.30
2023-02-22T07:05:55.713Z,1011.29
2023-02-22T07:06:55.638Z,1011.28
2023-02-22T07:07:55.634Z,1011.33
2023-02-22T07:08:55.633Z,1011.33
2023-02-22T07:09:55.622Z,1011.37
2023-02-22T07:10:55.595Z,1011.38
2023-02-22T07:11:55.583Z,1011.39
2023-02-22T07:12:55.572Z,1011.37
2023-02-22T07:13:55.563Z,1011.38
2023-02-22T07:14:55.575Z,1011.37
2023-02-22T07:15:55.600Z,1011.37
2023-02-22T07:16:55.524Z,1011.38
2023-02-22T07:17:55.517Z,1011.38
2023-02-22T07:18:55.510Z,1011.40
2023-02-22T07:19:55.530Z,1011.36
2023-02-22T07:20:55.493Z,1011.37
2023-02-22T07:21:55.466Z,1011.37
2023-02-22T07:22:55.469Z,1011.36
2023-02-22T07:23:55.450Z,1011.36
2023-02-22T07:24:55.442Z,1011.38
2023-02-22T07:25:55.463Z,1011.35
2023-02-22T07:26:55.429Z,1011.35
2023-02-22T07:27:55.427Z,1011.39
2023-02-22T07:28:55.412Z,1011.37
2023-02-22T07:29:55.541Z,1011.39
2023-02-22T07:30:55.394Z,1011.36
2023-02-22T07:31:55.399Z,1011.39
2023-02-22T07:32:55.483Z,1011.35
2023-02-22T07:33:55.345Z,1011.36
2023-02-22T07:34:55.365Z,1011.31
2023-02-22T07:35:55.338Z,1011.35
2023-02-22T07:36:55.316Z,1011.32
2023-02-22T07:37:56.087Z,1011.34
2023-02-22T07:38:55.298Z,1011.37
2023-02-22T07:39:55.281Z,1011.36
2023-02-22T07:40:55.284Z,1011.35
2023-02-22T07:41:55.292Z,1011.36
2023-02-22T07:42:55.246Z,1011.37
2023-02-22T07:43:55.236Z,1011.40
2023-02-22T07:44:55.222Z,1011.37
2023-02-22T07:45:55.260Z,1011.34
2023-02-22T07:46:55.204Z,1011.38
2023-02-22T07:47:55.184Z,1011.37
2023-02-22T07:48:55.217Z,1011.37
2023-02-22T07:49:55.171Z,1011.38
2023-02-22T07:50:55.176Z,1011.38
2023-02-22T07:51:55.156Z,1011.38
2023-02-22T07:52:55.140Z,1011.41
2023-02-22T07:53:55.130Z,1011.37
2023-02-22T07:54:55.109Z,1011.39
2023-02-22T07:55:55.106Z,1011.40
2023-02-22T07:56:55.119Z,1011.36
2023-02-22T07:57:55.093Z,1011.34
2023-02-22T07:58:55.075Z,1011.39
2023-02-22T07:59:55.056Z,1011.38
2023-02-22T08:00:55.043Z,1011.37
2023-02-22T08:01:55.032Z,1011.38
2023-02-22T08:02:55.070Z,1011.38
2023-02-22T08:03:55.048Z,1011.38
2023-02-22T08:04:55.001Z,1011.42
2023-02-22T08:05:55.007Z,1011.41
2023-02-22T08:06:55.079Z,1011.39
2023-02-22T08:07:54.970Z,1011.41
2023-02-22T08:08:54.971Z,1011.37
2023-02-22T08:09:54.953Z,1011.42
2023-02-22T08:10:54.931Z,1011.37
2023-02-22T08:11:54.949Z,1011.47
2023-02-22T08:12:54.917Z,1011.41
2023-02-22T08:13:54.948Z,1011.40
2023-02-22T08:14:54.897Z,1011.42
2023-02-22T08:15:54.888Z,1011.42
2023-02-22T08:16:54.908Z,1011.42
2023-02-22T08:17:54.886Z,1011.40
2023-02-22T08:18:54.851Z,1011.40
2023-02-22T08:19:54.841Z,1011.40
2023-02-22T08:20:54.832Z,1011.37
2023-02-22T08:21:54.826Z,1011.43
2023-02-22T08:22:54.816Z,1011.41
2023-02-22T08:23:54.815Z,1011.43
2023-02-22T08:24:54.802Z,1011.40
2023-02-22T08:25:54.798Z,1011.45
2023-02-22T08:26:54.759Z,1011.43
2023-02-22T08:27:54.754Z,1011.43
2023-02-22T08:28:54.751Z,1011.40
2023-02-22T08:29:54.756Z,1011.41
2023-02-22T08:30:54.716Z,1011.41
2023-02-22T08:31:54.861Z,1011.41
2023-02-22T08:32:54.832Z,1011.41
2023-02-22T08:33:54.739Z,1011.42
2023-02-22T08:34:54.679Z,1011.46
2023-02-22T08:35:54.664Z,1011.42
2023-02-22T08:36:54.656Z,1011.45
2023-02-22T08:37:54.658Z,1011.46
2023-02-22T08:38:54.649Z,1011.47
2023-02-22T08:39:54.624Z,1011.39
2023-02-22T08:40:54.628Z,1011.47
2023-02-22T08:41:54.599Z,1011.42
2023-02-22T08:42:54.582Z,1011.41
2023-02-22T08:43:54.713Z,1011.41
2023-02-22T08:44:54.574Z,1011.41
2023-02-22T08:45:57.305Z,1011.39
2023-02-22T08:46:54.541Z,1011.39
2023-02-22T08:47:54.543Z,1011.41
2023-02-22T08:48:54.561Z,1011.39
2023-02-22T08:49:54.523Z,1011.40
2023-02-22T08:50:54.498Z,1011.39
2023-02-22T08:51:54.492Z,1011.38
2023-02-22T08:52:54.480Z,1011.36
2023-02-22T08:53:54.470Z,1011.37
2023-02-22T08:54:54.461Z,1011.39
2023-02-22T08:55:54.446Z,1011.43
2023-02-22T08:56:54.436Z,1011.42
2023-02-22T08:57:54.419Z,1011.40
2023-02-22T08:58:54.408Z,1011.41
2023-02-22T08:59:54.412Z,1011.45
2023-02-22T09:00:54.384Z,1011.41
2023-02-22T09:01:54.439Z,1011.42
2023-02-22T09:02:54.361Z,1011.42
2023-02-22T09:03:54.391Z,1011.42
2023-02-22T09:04:54.344Z,1011.39
2023-02-22T09:05:54.379Z,1011.36
2023-02-22T09:06:54.318Z,1011.41
2023-02-22T09:07:54.317Z,1011.40
2023-02-22T09:08:54.304Z,1011.43
2023-02-22T09:09:54.281Z,1011.37
2023-02-22T09:10:54.291Z,1011.38
2023-02-22T09:11:54.332Z,1011.36
2023-02-22T09:12:54.255Z,1011.41
2023-02-22T09:13:54.246Z,1011.37
2023-02-22T09:14:54.225Z,1011.40
2023-02-22T09:15:54.223Z,1011.34
2023-02-22T09:16:54.280Z,1011.39
2023-02-22T09:17:54.216Z,1011.40
2023-02-22T09:18:54.181Z,1011.38
2023-02-22T09:19:54.186Z,1011.42
2023-02-22T09:20:54.164Z,1011.39
2023-02-22T09:21:54.182Z,1011.38
2023-02-22T09:22:54.132Z,1011.38
2023-02-22T09:23:54.133Z,1011.38
2023-02-22T09:24:54.320Z,1011.39
2023-02-22T09:25:54.123Z,1011.39
2023-02-22T09:26:54.105Z,1011.42
2023-02-22T09:27:54.113Z,1011.41
2023-02-22T09:28:54.069Z,1011.35
2023-02-22T09:29:54.056Z,1011.33
2023-02-22T09:30:54.050Z,1011.34
2023-02-22T09:31:54.250Z,1011.39
2023-02-22T09:32:54.362Z,1011.37
2023-02-22T09:33:54.052Z,1011.35
2023-02-22T09:34:54.005Z,1011.36
2023-02-22T09:35:53.996Z,1011.35
2023-02-22T09:36:53.992Z,1011.40
2023-02-22T09:37:53.993Z,1011.40
2023-02-22T09:38:53.990Z,1011.39
2023-02-22T09:39:54.041Z,1011.35
2023-02-22T09:40:53.938Z,1011.37
2023-02-22T09:41:53.935Z,1011.34
2023-02-22T09:42:54.001Z,1011.30
2023-02-22T09:43:53.916Z,1011.29
2023-02-22T09:44:53.920Z,1011.30
2023-02-22T09:45:53.916Z,1011.28
2023-02-22T09:46:53.875Z,1011.29
2023-02-22T09:47:56.315Z,1011.26
2023-02-22T09:48:53.872Z,1011.23
2023-02-22T09:49:53.869Z,1011.27
2023-02-22T09:50:53.830Z,1011.32
2023-02-22T09:51:53.819Z,1011.27
2023-02-22T09:52:53.810Z,1011.28
2023-02-22T09:53:53.815Z,1011.27
2023-02-22T09:54:53.789Z,1011.25
2023-02-22T09:55:53.789Z,1011.24
2023-02-22T09:56:53.758Z,1011.26
2023-02-22T09:57:53.759Z,1011.23
2023-02-22T09:58:53.790Z,1011.25
2023-02-22T09:59:53.729Z,1011.26
2023-02-22T10:00:53.717Z,1011.27
2023-02-22T10:01:53.717Z,1011.29
2023-02-22T10:02:53.703Z,1011.20
2023-02-22T10:03:53.757Z,1011.20
2023-02-22T10:04:53.695Z,1011.20
2023-02-22T10:05:53.698Z,1011.20
2023-02-22T10:06:53.661Z,1011.17
2023-02-22T10:07:53.652Z,1011.20
2023-02-22T10:08:53.640Z,1011.15
2023-02-22T10:09:53.665Z,1011.13
2023-02-22T10:10:53.615Z,1011.19
2023-02-22T10:11:53.625Z,1011.17
2023-02-22T10:12:53.586Z,1011.14
2023-02-22T10:13:53.580Z,1011.16
2023-02-22T10:14:53.571Z,1011.13
2023-02-22T10:15:53.575Z,1011.19
2023-02-22T10:16:53.613Z,1011.16
2023-02-22T10:17:53.533Z,1011.11
2023-02-22T10:18:53.524Z,1011.12
2023-02-22T10:19:54.848Z,1011.16
2023-02-22T10:20:53.512Z,1011.12
2023-02-22T10:21:53.534Z,1011.17
2023-02-22T10:22:53.499Z,1011.15
2023-02-22T10:23:53.469Z,1011.19
2023-02-22T10:24:53.464Z,1011.18
2023-02-22T10:25:53.456Z,1011.15
2023-02-22T10:26:53.445Z,1011.17
2023-02-22T10:27:53.432Z,1011.13
2023-02-22T10:28:53.426Z,1011.12
2023-02-22T10:29:53.422Z,1011.08
2023-02-22T10:30:53.410Z,1011.09
2023-02-22T10:31:53.449Z,1011.07
2023-02-22T10:32:53.384Z,1011.06
2023-02-22T10:33:53.369Z,1011.08
2023-02-22T10:34:53.358Z,1011.05
2023-02-22T10:35:53.340Z,1011.10
2023-02-22T10:36:53.332Z,1011.07
2023-02-22T10:37:53.373Z,1011.07
2023-02-22T10:38:53.310Z,1011.06
2023-02-22T10:39:53.336Z,1011.12
2023-02-22T10:40:53.292Z,1011.08
2023-02-22T10:41:53.273Z,1011.08
2023-02-22T10:42:53.276Z,1011.07
2023-02-22T10:43:53.326Z,1011.07
2023-02-22T10:44:53.247Z,1011.10
2023-02-22T10:45:53.305Z,1011.07
2023-02-22T10:46:53.224Z,1011.02
2023-02-22T10:47:53.206Z,1011.06
2023-02-22T10:48:53.296Z,1011.01
2023-02-22T10:49:53.214Z,1011.04
2023-02-22T10:50:53.191Z,1011.01
2023-02-22T10:51:53.167Z,1011.07
2023-02-22T10:52:53.161Z,1011.07
2023-02-22T10:53:53.214Z,1011.07
2023-02-22T10:54:55.482Z,1011.05
2023-02-22T10:55:53.223Z,1011.04
2023-02-22T10:56:53.117Z,1011.03
2023-02-22T10:57:53.103Z,1011.00
2023-02-22T10:58:53.093Z,1010.96
2023-02-22T10:59:53.090Z,1011.04
2023-02-22T11:00:53.070Z,1011.00
2023-02-22T11:01:53.075Z,1011.10
2023-02-22T11:02:53.058Z,1011.03
2023-02-22T11:03:53.073Z,1011.04
2023-02-22T11:04:53.098Z,1011.02
2023-02-22T11:05:53.012Z,1010.99
2023-02-22T11:06:52.999Z,1011.04
2023-02-22T11:07:52.995Z,1011.00
2023-02-22T11:08:52.980Z,1011.03
2023-02-22T11:09:53.032Z,1010.99
2023-02-22T11:10:53.040Z,1011.01
2023-02-22T11:11:52.959Z,1010.99
2023-02-22T11:12:52.939Z,1010.93
2023-02-22T11:13:52.941Z,1010.95
2023-02-22T11:14:52.912Z,1010.99
2023-02-22T11:15:52.910Z,1010.92
2023-02-22T11:16:53.039Z,1010.96
2023-02-22T11:17:52.884Z,1010.95
2023-02-22T11:18:52.893Z,1010.96
2023-02-22T11:19:52.859Z,1010.95
2023-02-22T11:20:52.851Z,1011.00
2023-02-22T11:21:52.836Z,1010.97
2023-02-22T11:22:52.846Z,1010.96
2023-02-22T11:23:52.810Z,1010.93
2023-02-22T11:24:52.810Z,1010.95
2023-02-22T11:25:52.818Z,1010.95
2023-02-22T11:26:52.798Z,1010.93
2023-02-22T11:27:52.775Z,1010.90
2023-02-22T11:28:52.755Z,1010.96
2023-02-22T11:29:52.751Z,1010.94
2023-02-22T11:30:52.982Z,1010.87
2023-02-22T11:31:52.836Z,1010.84
2023-02-22T11:32:52.711Z,1010.86
2023-02-22T11:33:52.716Z,1010.85
2023-02-22T11:35:00.283Z,1010.80
2023-02-22T11:35:53.706Z,1010.81
2023-02-22T11:36:52.676Z,1010.81
2023-02-22T11:37:52.667Z,1010.82
2023-02-22T11:38:52.642Z,1010.82
2023-02-22T11:39:52.637Z,1010.78
2023-02-22T11:40:52.627Z,1010.79
2023-02-22T11:41:52.691Z,1010.77
2023-02-22T11:42:52.608Z,1010.77
2023-02-22T11:43:52.593Z,1010.73
2023-02-22T11:44:52.590Z,1010.80
2023-02-22T11:45:58.990Z,1010.73
2023-02-22T11:46:53.586Z,1010.75
2023-02-22T11:47:52.598Z,1010.67
2023-02-22T11:48:52.537Z,1010.67
2023-02-22T11:49:52.523Z,1010.65
2023-02-22T11:50:52.509Z,1010.66
2023-02-22T11:51:52.514Z,1010.63
2023-02-22T11:52:52.497Z,1010.62
2023-02-22T11:53:52.489Z,1010.65
2023-02-22T11:54:52.476Z,1010.63
2023-02-22T11:55:52.465Z,1010.62
2023-02-22T11:56:52.473Z,1010.63
2023-02-22T11:57:52.471Z,1010.56
2023-02-22T11:58:52.438Z,1010.56
2023-02-22T11:59:52.425Z,1010.56
2023-02-22T12:00:52.409Z,1010.57
2023-02-22T12:01:52.428Z,1010.57
2023-02-22T12:02:57.433Z,1010.55
2023-02-22T12:03:52.448Z,1010.53
2023-02-22T12:04:52.467Z,1010.49